Time;durP1;ratioP1;P1;durP2;ratioP2;P2;SDS_P1;SDS_P2;PMS_P1;PMS_P2;Temp;Humidity;BMP_temperature;BMP_pressure;BME280_temperature;BME280_humidity;BME280_pressure;Samples;Min_cycle;Max_cycle;Signal;HPM_P1;HPM_P2
2024/03/30 00:00:13;;;;;;;0.50;0.50;;;;;;;11.00;73.51;95038.06;29395;215;63009;-54
2024/03/30 00:00:45;;;;;;;0.50;0.50;;;;;;;11.00;73.22;95040.78;29395;199;63005;-54
2024/03/30 00:01:17;;;;;;;0.50;0.50;;;;;;;11.00;73.35;95038.84;29395;320;63009;-54
2024/03/30 00:01:48;;;;;;;0.50;0.50;;;;;;;11.00;73.01;95038.06;29394;245;64009;-54
2024/03/30 00:02:34;;;;;;;0.50;0.50;;;;;;;11.00;73.22;95046.22;29395;255;63009;-54
2024/03/30 00:03:06;;;;;;;0.50;0.50;;;;;;;10.99;72.76;95039.19;29395;238;63004;-54
2024/03/30 00:03:47;;;;;;;0.50;0.50;;;;;;;10.99;73.47;95041.91;29395;234;63009;-54
2024/03/30 00:04:23;;;;;;;0.50;0.50;;;;;;;10.98;73.82;95040.31;29395;313;63004;-54
2024/03/30 00:04:55;;;;;;;0.50;0.50;;;;;;;10.98;73.57;95045.75;29395;205;63009;-54
2024/03/30 00:05:26;;;;;;;0.50;0.50;;;;;;;10.99;73.38;95041.91;29395;203;63005;-54
2024/03/30 00:06:01;;;;;;;0.60;0.60;;;;;;;11.02;72.68;95041.25;29395;261;63009;-53
2024/03/30 00:06:34;;;;;;;0.50;0.50;;;;;;;11.03;72.54;95035.47;29395;262;63005;-54
2024/03/30 00:07:06;;;;;;;0.50;0.50;;;;;;;11.08;71.92;95045.31;29394;198;64013;-55
2024/03/30 00:07:41;;;;;;;0.50;0.50;;;;;;;11.08;72.34;95034.44;29395;232;63005;-54
2024/03/30 00:08:13;;;;;;;0.50;0.50;;;;;;;11.08;72.23;95034.44;29395;262;63009;-54
2024/03/30 00:08:44;;;;;;;0.50;0.50;;;;;;;11.06;71.86;95042.13;29395;215;63009;-54
2024/03/30 00:09:39;;;;;;;0.50;0.50;;;;;;;11.06;72.13;95039.44;29395;202;63009;-54
2024/03/30 00:10:18;;;;;;;0.50;0.50;;;;;;;11.02;71.95;95035.81;29395;202;63004;-67
2024/03/30 00:10:58;;;;;;;0.50;0.50;;;;;;;11.00;72.09;95033.44;29395;196;63009;-54
2024/03/30 00:11:33;;;;;;;0.50;0.50;;;;;;;11.00;72.22;95032.63;29395;218;63004;-54
2024/03/30 00:12:09;;;;;;;0.50;0.50;;;;;;;10.98;71.92;95034.91;29395;327;63019;-54
2024/03/30 00:12:48;;;;;;;0.50;0.50;;;;;;;11.00;71.78;95038.06;29394;202;64009;-55
2024/03/30 00:13:20;;;;;;;0.50;0.50;;;;;;;11.00;71.97;95032.63;29395;242;63009;-54
2024/03/30 00:13:52;;;;;;;0.50;0.50;;;;;;;11.00;72.00;95038.06;29395;230;63005;-67
2024/03/30 00:14:24;;;;;;;0.50;0.50;;;;;;;10.99;71.63;95036.47;29395;244;63005;-54
2024/03/30 00:14:55;;;;;;;0.50;0.50;;;;;;;10.98;71.72;95030.25;29395;215;63005;-53
2024/03/30 00:15:32;;;;;;;0.50;0.50;;;;;;;10.97;71.86;95038.75;29394;265;64009;-55
2024/03/30 00:16:07;;;;;;;0.50;0.50;;;;;;;10.96;72.06;95048.03;29395;238;63004;-54
2024/03/30 00:16:42;;;;;;;0.50;0.50;;;;;;;10.95;72.31;95039.09;29395;217;63009;-54
2024/03/30 00:17:13;;;;;;;0.50;0.50;;;;;;;10.96;72.00;95040.66;29395;252;63004;-54
2024/03/30 00:17:44;;;;;;;0.50;0.50;;;;;;;10.96;71.81;95039.87;29394;221;64013;-54
2024/03/30 00:18:16;;;;;;;0.50;0.50;;;;;;;10.95;71.99;95036.38;29395;213;63004;-54
2024/03/30 00:18:53;;;;;;;0.50;0.50;;;;;;;10.94;71.81;95039.41;29395;213;63008;-54
2024/03/30 00:19:24;;;;;;;0.50;0.50;;;;;;;10.95;71.78;95041.00;29395;202;63004;-53
2024/03/30 00:19:55;;;;;;;0.50;0.50;;;;;;;10.94;71.98;95036.72;29395;254;63009;-53
2024/03/30 00:20:27;;;;;;;0.50;0.50;;;;;;;10.93;71.82;95035.12;29395;203;63005;-54
2024/03/30 00:21:04;;;;;;;0.50;0.50;;;;;;;10.94;72.03;95039.41;29395;264;63009;-54
2024/03/30 00:21:36;;;;;;;0.50;0.50;;;;;;;10.95;71.45;95033.66;29395;233;63005;-54
2024/03/30 00:22:07;;;;;;;0.50;0.50;;;;;;;10.95;71.62;95036.38;29395;272;63009;-54
2024/03/30 00:22:38;;;;;;;0.50;0.50;;;;;;;10.94;71.56;95034.00;29395;318;63005;-54
2024/03/30 00:23:10;;;;;;;0.50;0.50;;;;;;;10.92;71.55;95036.25;29394;260;64013;-54
2024/03/30 00:23:41;;;;;;;0.50;0.50;;;;;;;10.90;71.84;95038.50;29395;212;63004;-54
2024/03/30 00:24:12;;;;;;;0.50;0.50;;;;;;;10.90;72.13;95038.50;29395;197;63009;-54
2024/03/30 00:24:43;;;;;;;0.50;0.50;;;;;;;10.89;71.84;95045.06;29395;214;63012;-55
2024/03/30 00:25:15;;;;;;;0.50;0.50;;;;;;;10.88;71.92;95035.34;29395;247;63009;-54
2024/03/30 00:25:53;;;;;;;0.50;0.50;;;;;;;10.87;72.35;95034.56;29395;271;63004;-54
2024/03/30 00:26:24;;;;;;;0.50;0.50;;;;;;;10.88;72.08;95029.91;29395;242;63009;-54
2024/03/30 00:26:56;;;;;;;0.50;0.50;;;;;;;10.86;71.93;95026.75;29395;255;63005;-54
2024/03/30 00:27:27;;;;;;;0.50;0.50;;;;;;;10.86;71.82;95026.75;29395;224;63009;-54
2024/03/30 00:27:59;;;;;;;0.50;0.50;;;;;;;10.86;71.75;95032.97;29395;252;63005;-53
2024/03/30 00:28:31;;;;;;;0.40;0.40;;;;;;;10.86;71.96;95029.47;29394;237;64013;-54
2024/03/30 00:29:02;;;;;;;0.50;0.50;;;;;;;10.86;72.01;95038.41;29395;197;63005;-54
2024/03/30 00:29:35;;;;;;;0.50;0.50;;;;;;;10.89;71.51;95036.94;29395;255;63005;-54
2024/03/30 00:30:08;;;;;;;0.50;0.50;;;;;;;10.91;71.67;95029.25;29395;261;63005;-54
2024/03/30 00:30:41;;;;;;;0.50;0.50;;;;;;;10.92;71.73;95033.53;29395;245;63009;-54
2024/03/30 00:31:13;;;;;;;0.50;0.50;;;;;;;10.90;71.77;95023.03;29394;447;64009;-53
2024/03/30 00:31:44;;;;;;;0.50;0.50;;;;;;;10.90;71.61;95027.66;29395;216;63009;-54
2024/03/30 00:32:17;;;;;;;0.50;0.50;;;;;;;10.90;71.43;95033.88;29395;232;63009;-54
2024/03/30 00:32:48;;;;;;;0.50;0.50;;;;;;;10.90;71.60;95031.16;29395;199;63009;-54
2024/03/30 00:33:20;;;;;;;0.50;0.50;;;;;;;10.89;71.50;95034.22;29395;257;63004;-54
2024/03/30 00:33:51;;;;;;;0.43;0.43;;;;;;;10.88;71.65;95028.00;29395;204;63009;-54
2024/03/30 00:34:23;;;;;;;0.50;0.50;;;;;;;10.89;71.63;95028.78;29395;209;63005;-54
2024/03/30 00:34:54;;;;;;;0.50;0.50;;;;;;;10.89;71.87;95026.88;29394;276;64009;-54
2024/03/30 00:35:25;;;;;;;0.50;0.50;;;;;;;10.89;71.95;95026.06;29395;252;63005;-55
2024/03/30 00:35:58;;;;;;;0.50;0.50;;;;;;;10.90;71.77;95024.94;29395;225;63009;-54
2024/03/30 00:36:29;;;;;;;0.40;0.40;;;;;;;10.92;71.52;95033.53;29394;212;64009;-54
2024/03/30 00:37:03;;;;;;;0.50;0.50;;;;;;;10.91;71.60;95029.25;29395;217;63019;-54
2024/03/30 00:37:34;;;;;;;0.50;0.50;;;;;;;10.92;71.67;95025.41;29395;240;63005;-54
2024/03/30 00:38:07;;;;;;;0.50;0.50;;;;;;;10.92;71.30;95022.69;29394;226;64009;-54
2024/03/30 00:38:41;;;;;;;0.50;0.50;;;;;;;10.91;71.30;95024.59;29395;205;63004;-54
2024/03/30 00:39:12;;;;;;;0.50;0.50;;;;;;;10.92;71.46;95028.12;29395;218;63009;-54
2024/03/30 00:39:45;;;;;;;0.65;0.65;;;;;;;10.91;71.76;95037.38;29395;205;63004;-55
2024/03/30 00:40:16;;;;;;;0.50;0.50;;;;;;;10.91;71.43;95029.25;29395;238;63016;-54
2024/03/30 00:40:48;;;;;;;0.50;0.50;;;;;;;10.92;71.73;95025.41;29395;236;63004;-54
2024/03/30 00:41:19;;;;;;;0.50;0.50;;;;;;;10.92;71.59;95025.41;29395;230;63005;-54
2024/03/30 00:41:50;;;;;;;0.50;0.50;;;;;;;10.92;71.48;95030.81;29394;235;64009;-54
2024/03/30 00:42:22;;;;;;;0.50;0.50;;;;;;;10.95;71.09;95019.28;29394;217;64014;-55
2024/03/30 00:42:53;;;;;;;0.47;0.47;;;;;;;10.97;70.78;95027.88;29395;260;63005;-54
2024/03/30 00:43:24;;;;;;;0.50;0.50;;;;;;;10.97;70.87;95023.25;29395;318;63009;-54
2024/03/30 00:43:55;;;;;;;0.50;0.50;;;;;;;10.96;70.99;95027.09;29395;272;63005;-54
2024/03/30 00:44:27;;;;;;;0.50;0.50;;;;;;;10.95;71.05;95024.72;29395;221;63009;-54
2024/03/30 00:44:58;;;;;;;0.50;0.50;;;;;;;10.93;71.13;95029.69;29395;252;63005;-54
2024/03/30 00:45:30;;;;;;;0.50;0.50;;;;;;;10.92;70.96;95033.53;29395;226;63009;-54
2024/03/30 00:46:01;;;;;;;0.50;0.50;;;;;;;10.90;71.60;95033.09;29394;226;64009;-54
2024/03/30 00:46:33;;;;;;;0.50;0.50;;;;;;;10.88;71.51;95028.00;29395;262;63021;-54
2024/03/30 00:47:04;;;;;;;0.50;0.50;;;;;;;10.89;71.17;95032.28;29395;223;63004;-54
2024/03/30 00:47:35;;;;;;;0.50;0.50;;;;;;;10.87;71.41;95033.75;29395;218;63009;-54
2024/03/30 00:48:07;;;;;;;0.50;0.50;;;;;;;10.87;71.35;95033.75;29395;203;63004;-54
2024/03/30 00:48:38;;;;;;;0.50;0.50;;;;;;;10.86;71.54;95026.75;29395;242;63008;-54
2024/03/30 00:49:10;;;;;;;0.50;0.50;;;;;;;10.85;71.23;95027.88;29395;253;63005;-54
2024/03/30 00:49:41;;;;;;;0.50;0.50;;;;;;;10.84;71.50;95029.81;29395;270;63009;-54
2024/03/30 00:50:12;;;;;;;0.45;0.45;;;;;;;10.85;71.40;95028.69;29395;204;63009;-55
2024/03/30 00:50:44;;;;;;;0.50;0.50;;;;;;;10.85;71.21;95034.09;29394;262;64013;-54
2024/03/30 00:51:15;;;;;;;0.50;0.50;;;;;;;10.86;71.31;95027.53;29395;261;63005;-54
2024/03/30 00:51:46;;;;;;;0.50;0.50;;;;;;;10.86;70.98;95016.69;29395;227;63009;-67
2024/03/30 00:52:17;;;;;;;0.50;0.50;;;;;;;10.84;71.08;95023.59;29395;221;63005;-55
2024/03/30 00:52:48;;;;;;;0.40;0.40;;;;;;;10.83;71.33;95027.44;29395;215;63009;-55
2024/03/30 00:53:20;;;;;;;0.50;0.50;;;;;;;10.80;71.43;95023.47;29395;197;63004;-54
2024/03/30 00:53:51;;;;;;;0.50;0.50;;;;;;;10.75;71.63;95021.78;29395;241;63009;-54
2024/03/30 00:54:22;;;;;;;0.50;0.50;;;;;;;10.77;71.71;95026.06;29395;253;63004;-54
2024/03/30 00:54:53;;;;;;;0.50;0.50;;;;;;;10.77;71.81;95028.78;29395;258;63009;-53
2024/03/30 00:55:25;;;;;;;0.50;0.50;;;;;;;10.75;72.11;95027.19;29395;250;63004;-54
2024/03/30 00:56:00;;;;;;;0.50;0.50;;;;;;;10.75;72.16;95026.41;29394;261;64013;-54
2024/03/30 00:56:31;;;;;;;0.50;0.50;;;;;;;10.74;71.91;95024.84;29395;249;63010;-54
2024/03/30 00:57:03;;;;;;;0.50;0.50;;;;;;;10.72;72.07;95027.12;29395;285;63009;-54
2024/03/30 00:57:41;;;;;;;0.50;0.50;;;;;;;10.71;72.09;95018.19;29395;203;63005;-54
2024/03/30 00:58:12;;;;;;;0.50;0.50;;;;;;;10.68;72.41;95021.56;29395;235;63024;-54
2024/03/30 00:58:45;;;;;;;0.50;0.50;;;;;;;10.68;72.42;95018.84;29395;225;63005;-54
2024/03/30 00:59:17;;;;;;;0.50;0.50;;;;;;;10.69;71.93;95023.16;29395;227;63009;-54
2024/03/30 00:59:50;;;;;;;0.50;0.50;;;;;;;10.70;71.59;95019.31;29395;249;63009;-53
2024/03/30 01:00:22;;;;;;;0.50;0.50;;;;;;;10.71;71.69;95015.47;29395;200;63009;-54
2024/03/30 01:00:53;;;;;;;0.50;0.50;;;;;;;10.72;71.04;95022.47;29395;196;63004;-54
2024/03/30 01:01:24;;;;;;;0.50;0.50;;;;;;;10.71;71.22;95015.47;29394;217;64013;-54
2024/03/30 01:01:56;;;;;;;0.50;0.50;;;;;;;10.71;71.52;95018.19;29395;222;63004;-54
2024/03/30 01:02:27;;;;;;;0.50;0.50;;;;;;;10.70;71.44;95016.59;29395;211;63009;-53
2024/03/30 01:02:59;;;;;;;0.50;0.50;;;;;;;10.70;71.56;95023.94;29395;249;63004;-54
2024/03/30 01:03:31;;;;;;;0.50;0.50;;;;;;;10.69;71.61;95025.88;29395;246;63008;-54
2024/03/30 01:04:03;;;;;;;0.50;0.50;;;;;;;10.70;71.63;95029.38;29395;241;63005;-54
2024/03/30 01:04:34;;;;;;;0.40;0.40;;;;;;;10.71;71.47;95023.59;29395;249;63009;-66
2024/03/30 01:05:07;;;;;;;0.50;0.50;;;;;;;10.72;70.94;95022.47;29395;270;63005;-53
2024/03/30 01:05:38;;;;;;;0.40;0.40;;;;;;;10.73;71.00;95018.63;29395;336;63009;-54
2024/03/30 01:06:09;;;;;;;0.50;0.50;;;;;;;10.73;70.95;95018.63;29395;243;63005;-54
2024/03/30 01:06:40;;;;;;;0.50;0.50;;;;;;;10.73;70.56;95024.06;29394;208;64013;-54
2024/03/30 01:07:12;;;;;;;0.45;0.45;;;;;;;10.72;70.92;95017.06;29395;239;63005;-54
2024/03/30 01:07:44;;;;;;;0.40;0.40;;;;;;;10.71;70.79;95020.91;29395;272;63009;-54
2024/03/30 01:08:17;;;;;;;0.50;0.50;;;;;;;10.72;70.81;95017.06;29395;264;63004;-54
2024/03/30 01:08:48;;;;;;;0.50;0.50;;;;;;;10.71;70.94;95018.19;29395;261;63009;-54
2024/03/30 01:09:19;;;;;;;0.50;0.50;;;;;;;10.71;71.20;95017.38;29395;245;63004;-53
2024/03/30 01:09:52;;;;;;;0.50;0.50;;;;;;;10.70;70.18;95013.09;29395;220;63009;-54
2024/03/30 01:10:23;;;;;;;0.50;0.50;;;;;;;10.68;70.44;95016.16;29395;202;63004;-54
2024/03/30 01:10:59;;;;;;;0.47;0.47;;;;;;;10.70;70.71;95021.22;29395;274;63008;-54
2024/03/30 01:11:31;;;;;;;0.50;0.50;;;;;;;10.69;70.64;95020.44;29395;245;63004;-53
2024/03/30 01:12:03;;;;;;;0.50;0.50;;;;;;;10.69;70.53;95012.31;29394;283;64014;-54
2024/03/30 01:12:37;;;;;;;0.50;0.50;;;;;;;10.70;70.42;95013.88;29395;264;63005;-54
2024/03/30 01:13:12;;;;;;;0.50;0.50;;;;;;;10.70;70.73;95013.88;29395;239;63009;-54
2024/03/30 01:13:46;;;;;;;0.50;0.50;;;;;;;10.69;70.15;95009.59;29395;219;63005;-54
2024/03/30 01:14:21;;;;;;;0.50;0.50;;;;;;;10.68;70.07;95013.44;29395;384;63009;-54
2024/03/30 01:14:54;;;;;;;0.50;0.50;;;;;;;10.68;70.28;95018.84;29395;273;63005;-54
2024/03/30 01:15:27;;;;;;;0.50;0.50;;;;;;;10.68;70.39;95010.72;29395;238;63017;-54
2024/03/30 01:15:59;;;;;;;0.50;0.50;;;;;;;10.68;69.94;95010.72;29395;313;63004;-53
2024/03/30 01:16:31;;;;;;;0.43;0.43;;;;;;;10.68;70.00;95018.84;29395;226;63009;-54
2024/03/30 01:17:04;;;;;;;0.40;0.40;;;;;;;10.68;70.37;95015.34;29394;215;64009;-54
2024/03/30 01:17:37;;;;;;;0.40;0.40;;;;;;;10.67;69.81;95011.84;29395;239;63008;-53
2024/03/30 01:18:10;;;;;;;0.50;0.50;;;;;;;10.68;70.33;95016.16;29395;212;63004;-54
2024/03/30 01:18:45;;;;;;;0.50;0.50;;;;;;;10.68;69.98;95023.50;29395;240;63008;-54
2024/03/30 01:19:18;;;;;;;0.50;0.50;;;;;;;10.69;69.77;95011.50;29395;197;63012;-54
2024/03/30 01:19:50;;;;;;;0.50;0.50;;;;;;;10.70;69.74;95018.53;29395;285;63009;-55
2024/03/30 01:20:23;;;;;;;0.50;0.50;;;;;;;10.71;69.52;95018.19;29395;273;63005;-54
2024/03/30 01:20:59;;;;;;;0.50;0.50;;;;;;;10.74;68.76;95014.75;29395;259;63009;-54
2024/03/30 01:21:31;;;;;;;0.50;0.50;;;;;;;10.74;68.94;95003.91;29394;209;64005;-54
2024/03/30 01:22:03;;;;;;;0.50;0.50;;;;;;;10.75;68.81;95000.06;29394;249;64013;-54
2024/03/30 01:22:35;;;;;;;0.50;0.50;;;;;;;10.75;68.42;95005.50;29394;284;64009;-55
2024/03/30 01:23:08;;;;;;;0.50;0.50;;;;;;;10.77;68.07;95007.88;29395;216;63009;-54
2024/03/30 01:23:39;;;;;;;0.50;0.50;;;;;;;10.78;68.59;95008.66;29395;212;63004;-55
2024/03/30 01:24:12;;;;;;;0.50;0.50;;;;;;;10.78;67.42;95003.25;29395;226;63009;-54
2024/03/30 01:24:44;;;;;;;0.50;0.50;;;;;;;10.79;67.79;95008.31;29395;216;63004;-54
2024/03/30 01:25:17;;;;;;;0.50;0.50;;;;;;;10.80;67.86;95004.47;29395;233;63008;-54
2024/03/30 01:25:50;;;;;;;0.50;0.50;;;;;;;10.82;67.16;95007.66;29395;249;63004;-54
2024/03/30 01:26:25;;;;;;;0.50;0.50;;;;;;;10.86;67.07;94999.63;29395;202;63026;-55
2024/03/30 01:26:59;;;;;;;0.50;0.50;;;;;;;10.88;66.65;94998.16;29395;263;63005;-54
2024/03/30 01:27:31;;;;;;;0.50;0.50;;;;;;;10.94;65.41;94996.00;29395;215;63008;-54
2024/03/30 01:28:09;;;;;;;0.50;0.50;;;;;;;10.95;65.95;94986.72;29394;221;64009;-54
2024/03/30 01:28:45;;;;;;;0.57;0.57;;;;;;;10.95;66.47;94992.16;29417;247;63009;-54
2024/03/30 01:29:23;;;;;;;0.50;0.50;;;;;;;10.94;66.24;94990.56;29395;228;63005;-54
2024/03/30 01:30:09;;;;;;;0.50;0.50;;;;;;;10.91;65.12;94983.91;29395;228;63009;-54
2024/03/30 01:30:44;;;;;;;0.50;0.50;;;;;;;10.92;65.62;94990.12;29395;222;63004;-55
2024/03/30 01:31:20;;;;;;;0.50;0.50;;;;;;;10.92;66.37;94992.84;29395;375;63009;-53
2024/03/30 01:31:53;;;;;;;0.50;0.50;;;;;;;10.90;66.49;94993.19;29395;313;63004;-54
2024/03/30 01:32:25;;;;;;;0.50;0.50;;;;;;;10.91;66.58;94985.84;29395;228;63009;-54
2024/03/30 01:33:01;;;;;;;0.50;0.50;;;;;;;10.89;66.64;94986.16;29395;223;63004;-55
2024/03/30 01:33:33;;;;;;;0.50;0.50;;;;;;;10.88;66.89;94991.94;29394;488;64014;-53
2024/03/30 01:34:05;;;;;;;0.50;0.50;;;;;;;10.87;67.27;94995.78;29395;232;63008;-54
2024/03/30 01:34:37;;;;;;;0.50;0.50;;;;;;;10.86;65.84;94988.78;29395;202;63009;-54
2024/03/30 01:35:12;;;;;;;0.50;0.50;;;;;;;10.85;66.52;94987.97;29395;199;63005;-54
2024/03/30 01:35:43;;;;;;;0.50;0.50;;;;;;;10.86;67.01;94994.19;29395;310;63009;-53
2024/03/30 01:36:15;;;;;;;0.50;0.50;;;;;;;10.86;66.41;94984.13;29395;418;63005;-54
2024/03/30 01:36:46;;;;;;;0.50;0.50;;;;;;;10.85;65.75;94987.97;29395;262;63009;-53
2024/03/30 01:37:18;;;;;;;0.50;0.50;;;;;;;10.85;65.80;94987.19;29395;303;63005;-54
2024/03/30 01:37:49;;;;;;;0.50;0.50;;;;;;;10.87;65.80;94979.50;29395;255;63009;-54
2024/03/30 01:38:21;;;;;;;0.50;0.50;;;;;;;10.87;64.38;94979.50;29395;243;63004;-53
2024/03/30 01:38:52;;;;;;;0.50;0.50;;;;;;;10.87;64.61;94988.44;29394;208;64013;-54
2024/03/30 01:39:23;;;;;;;0.50;0.50;;;;;;;10.87;64.59;94984.94;29395;266;63004;-54
2024/03/30 01:39:58;;;;;;;0.50;0.50;;;;;;;10.88;64.91;94981.09;29395;214;63009;-54
2024/03/30 01:40:33;;;;;;;0.50;0.50;;;;;;;10.87;65.54;94987.63;29395;223;63004;-54
2024/03/30 01:41:04;;;;;;;0.50;0.50;;;;;;;10.88;65.64;94986.50;29395;234;63009;-53
2024/03/30 01:41:36;;;;;;;0.50;0.50;;;;;;;10.87;66.05;94984.94;29395;274;63001;-54
2024/03/30 01:42:07;;;;;;;0.50;0.50;;;;;;;10.86;65.75;94986.06;29395;202;63025;-55
2024/03/30 01:42:42;;;;;;;0.50;0.50;;;;;;;10.85;65.69;94992.63;29395;306;63005;-54
2024/03/30 01:43:17;;;;;;;0.50;0.50;;;;;;;10.85;66.20;94992.63;29395;204;63009;-54
2024/03/30 01:43:49;;;;;;;0.50;0.50;;;;;;;10.84;66.09;94988.31;29395;197;63005;-54
2024/03/30 01:44:21;;;;;;;0.50;0.50;;;;;;;10.83;66.68;94995.66;29394;261;64013;-55
2024/03/30 01:44:53;;;;;;;0.50;0.50;;;;;;;10.83;65.62;94989.44;29395;257;63019;-54
2024/03/30 01:45:31;;;;;;;0.50;0.50;;;;;;;10.83;66.51;94994.88;29395;436;63009;-54
2024/03/30 01:46:02;;;;;;;0.50;0.50;;;;;;;10.85;65.52;94992.63;29395;204;63004;-54
2024/03/30 01:46:34;;;;;;;0.50;0.50;;;;;;;10.86;64.27;94981.41;29395;276;63009;-54
2024/03/30 01:47:09;;;;;;;0.50;0.50;;;;;;;10.88;62.32;94976.44;29395;214;63004;-54
2024/03/30 01:47:40;;;;;;;0.50;0.50;;;;;;;10.91;61.19;94964.13;29395;262;63017;-53
2024/03/30 01:48:12;;;;;;;0.50;0.50;;;;;;;10.93;60.39;94961.88;29395;212;63004;-54
2024/03/30 01:48:44;;;;;;;0.50;0.50;;;;;;;10.92;61.36;94963.78;29395;221;63009;-54
2024/03/30 01:49:18;;;;;;;0.50;0.50;;;;;;;10.96;62.48;94977.47;29395;264;63005;-54
2024/03/30 01:49:51;;;;;;;0.50;0.50;;;;;;;10.97;62.99;94976.34;29394;224;64014;-54
2024/03/30 01:50:22;;;;;;;0.50;0.50;;;;;;;11.01;62.11;94974.53;29395;261;63005;-54
2024/03/30 01:50:54;;;;;;;0.50;0.50;;;;;;;11.03;61.83;94972.25;29395;246;63009;-55
2024/03/30 01:51:26;;;;;;;0.50;0.50;;;;;;;11.04;62.03;94979.28;29395;216;63016;-54
2024/03/30 01:51:59;;;;;;;0.50;0.50;;;;;;;11.04;62.28;94974.62;29395;214;63009;-53
2024/03/30 01:52:33;;;;;;;0.50;0.50;;;;;;;11.05;62.64;94970.78;29395;241;63005;-54
2024/03/30 01:53:06;;;;;;;0.40;0.40;;;;;;;11.06;62.32;94971.56;29395;202;63009;-54
2024/03/30 01:53:39;;;;;;;0.50;0.50;;;;;;;11.08;61.74;94963.87;29395;308;63004;-54
2024/03/30 01:54:11;;;;;;;0.50;0.50;;;;;;;11.08;61.31;94967.38;29395;262;63023;-54
2024/03/30 01:54:43;;;;;;;0.50;0.50;;;;;;;11.09;61.66;94968.16;29395;356;63004;-54
2024/03/30 01:55:15;;;;;;;0.50;0.50;;;;;;;11.08;62.07;94975.53;29394;210;64013;-53
2024/03/30 01:55:54;;;;;;;0.50;0.50;;;;;;;11.08;62.32;94972.81;29395;254;63004;-54
2024/03/30 01:56:27;;;;;;;0.50;0.50;;;;;;;11.09;61.21;94962.72;29395;221;63009;-54
2024/03/30 01:57:02;;;;;;;0.40;0.40;;;;;;;11.09;61.98;94970.87;29395;231;63005;-54
2024/03/30 01:57:35;;;;;;;0.50;0.50;;;;;;;11.11;62.33;94973.25;29395;307;63017;-54
2024/03/30 01:58:09;;;;;;;0.50;0.50;;;;;;;11.09;62.06;94968.94;29395;199;63005;-54
2024/03/30 01:58:47;;;;;;;0.50;0.50;;;;;;;11.12;61.92;94963.97;29395;202;63009;-54
2024/03/30 01:59:18;;;;;;;0.50;0.50;;;;;;;11.12;61.86;94970.19;29395;216;63005;-54
2024/03/30 01:59:53;;;;;;;0.50;0.50;;;;;;;11.12;59.68;94959.31;29395;214;63009;-53
2024/03/30 02:00:29;;;;;;;0.50;0.50;;;;;;;11.16;60.16;94959.44;29394;205;64009;-54
2024/03/30 02:01:01;;;;;;;0.50;0.50;;;;;;;11.17;59.99;94948.22;29395;250;63014;-53
2024/03/30 02:01:33;;;;;;;0.50;0.50;;;;;;;11.19;59.45;94953.31;29395;327;63004;-54
2024/03/30 02:02:04;;;;;;;2.97;2.85;;;;;;;11.22;59.54;94958.06;29395;226;63009;-54
2024/03/30 02:02:36;;;;;;;0.50;0.50;;;;;;;11.25;58.73;94952.75;29395;267;63004;-54
2024/03/30 02:03:08;;;;;;;0.50;0.50;;;;;;;11.26;58.16;94943.47;29395;202;63008;-53
2024/03/30 02:03:40;;;;;;;0.40;0.40;;;;;;;11.27;58.64;94960.53;29395;257;63005;-54
2024/03/30 02:04:15;;;;;;;0.40;0.40;;;;;;;11.27;58.66;94950.47;29395;243;63009;-54
2024/03/30 02:04:48;;;;;;;0.40;0.40;;;;;;;11.30;58.28;94949.78;29394;259;64009;-54
2024/03/30 02:05:21;;;;;;;0.40;0.40;;;;;;;11.32;57.32;94942.09;29395;211;63009;-55
2024/03/30 02:05:54;;;;;;;0.40;0.40;;;;;;;11.34;57.61;94947.97;29395;204;63005;-55
2024/03/30 02:06:30;;;;;;;0.50;0.50;;;;;;;11.33;55.98;94927.38;29395;197;63015;-55
2024/03/30 02:07:03;;;;;;;0.50;0.50;;;;;;;11.36;56.30;94928.62;29395;197;63005;-54
2024/03/30 02:07:34;;;;;;;0.50;0.50;;;;;;;11.37;56.80;94933.72;29395;266;63009;-55
2024/03/30 02:08:14;;;;;;;0.50;0.50;;;;;;;11.39;56.75;94931.44;29395;225;63015;-55
2024/03/30 02:08:49;;;;;;;0.50;0.50;;;;;;;11.41;56.99;94933.81;29417;232;63009;-55
2024/03/30 02:09:20;;;;;;;0.50;0.50;;;;;;;11.40;54.74;94911.31;29394;237;64002;-53
2024/03/30 02:09:53;;;;;;;0.50;0.50;;;;;;;11.43;56.05;94930.75;29395;224;63009;-53
2024/03/30 02:10:24;;;;;;;0.50;0.50;;;;;;;11.43;56.38;94929.59;29395;232;63004;-53
2024/03/30 02:10:58;;;;;;;0.50;0.50;;;;;;;11.46;56.76;94935.47;29394;229;64013;-52
2024/03/30 02:11:30;;;;;;;0.50;0.50;;;;;;;11.47;54.40;94916.09;29395;248;63005;-53
2024/03/30 02:12:02;;;;;;;0.50;0.50;;;;;;;11.51;55.35;94929.78;29395;221;63009;-53
2024/03/30 02:12:33;;;;;;;0.50;0.50;;;;;;;11.53;55.18;94924.81;29395;226;63005;-54
2024/03/30 02:13:08;;;;;;;0.50;0.50;;;;;;;11.56;55.02;94924.13;29395;260;63009;-53
2024/03/30 02:13:39;;;;;;;0.50;0.50;;;;;;;11.59;53.80;94912.56;29395;203;63005;-54
2024/03/30 02:14:11;;;;;;;0.50;0.50;;;;;;;11.60;53.99;94914.94;29395;263;63009;-54
2024/03/30 02:14:42;;;;;;;0.50;0.50;;;;;;;11.61;54.58;94921.94;29395;234;63005;-53
2024/03/30 02:15:16;;;;;;;0.50;0.50;;;;;;;11.65;53.39;94911.19;29395;259;63009;-54
2024/03/30 02:15:47;;;;;;;0.50;0.50;;;;;;;11.69;53.57;94918.28;29395;245;63004;-53
2024/03/30 02:16:21;;;;;;;0.47;0.47;;;;;;;11.71;52.80;94916.00;29394;211;64013;-53
2024/03/30 02:16:52;;;;;;;0.50;0.50;;;;;;;11.73;53.18;94918.38;29395;197;63004;-53
2024/03/30 02:17:25;;;;;;;0.50;0.50;;;;;;;11.75;53.38;94910.69;29394;394;64013;-53
2024/03/30 02:17:56;;;;;;;0.43;0.43;;;;;;;11.74;53.65;94917.25;29395;221;63004;-53
2024/03/30 02:18:28;;;;;;;0.50;0.50;;;;;;;11.75;53.81;94916.91;29395;251;63027;-54
2024/03/30 02:18:59;;;;;;;0.50;0.50;;;;;;;11.78;53.12;94910.00;29395;236;63005;-53
2024/03/30 02:19:39;;;;;;;0.50;0.50;;;;;;;11.78;53.30;94912.72;29394;224;64014;-53
2024/03/30 02:20:10;;;;;;;0.50;0.50;;;;;;;11.80;53.03;94915.88;29395;227;63005;-54
2024/03/30 02:20:41;;;;;;;0.50;0.50;;;;;;;11.84;51.62;94903.16;29395;260;63009;-53
2024/03/30 02:21:12;;;;;;;0.50;0.50;;;;;;;11.88;51.68;94903.25;29395;222;63005;-53
2024/03/30 02:21:44;;;;;;;0.50;0.50;;;;;;;11.89;51.47;94908.34;29395;260;63009;-53
2024/03/30 02:22:18;;;;;;;0.50;0.50;;;;;;;11.89;52.09;94918.44;29395;239;63004;-53
2024/03/30 02:22:57;;;;;;;0.50;0.50;;;;;;;11.90;49.96;94899.06;29395;231;63009;-53
2024/03/30 02:23:28;;;;;;;0.50;0.50;;;;;;;11.92;50.93;94904.94;29395;208;63004;-53
2024/03/30 02:23:59;;;;;;;0.50;0.50;;;;;;;11.91;51.21;94908.78;29395;225;63009;-54
2024/03/30 02:24:30;;;;;;;0.50;0.50;;;;;;;11.90;51.77;94907.22;29394;229;64009;-53
2024/03/30 02:25:01;;;;;;;0.50;0.50;;;;;;;11.92;50.49;94913.09;29395;235;63008;-53
2024/03/30 02:25:33;;;;;;;0.50;0.50;;;;;;;11.94;50.84;94910.03;29395;201;63004;-53
2024/03/30 02:26:04;;;;;;;0.50;0.50;;;;;;;11.95;50.40;94904.25;29395;337;63008;-55
2024/03/30 02:26:37;;;;;;;0.50;0.50;;;;;;;11.98;50.12;94903.53;29395;238;63005;-54
2024/03/30 02:27:08;;;;;;;0.50;0.50;;;;;;;11.99;50.10;94899.69;29395;209;63009;-54
2024/03/30 02:27:41;;;;;;;0.50;0.50;;;;;;;11.99;50.87;94902.41;29395;322;63005;-54
2024/03/30 02:28:12;;;;;;;0.40;0.40;;;;;;;11.98;50.12;94903.53;29395;230;63009;-53
2024/03/30 02:28:45;;;;;;;0.50;0.50;;;;;;;12.00;51.30;94906.69;29395;202;63005;-54
2024/03/30 02:29:22;;;;;;;0.50;0.50;;;;;;;12.00;51.25;94906.69;29395;253;63009;-54
2024/03/30 02:30:01;;;;;;;0.50;0.50;;;;;;;12.03;50.45;94903.28;29394;214;64009;-55
2024/03/30 02:30:37;;;;;;;0.50;0.50;;;;;;;12.04;49.30;94896.72;29395;216;63015;-54
2024/03/30 02:31:12;;;;;;;0.50;0.50;;;;;;;12.05;49.92;94902.94;29395;218;63004;-54
2024/03/30 02:31:44;;;;;;;0.40;0.40;;;;;;;12.05;50.67;94913.81;29395;197;63009;-54
2024/03/30 02:32:16;;;;;;;0.40;0.40;;;;;;;12.04;48.52;94896.72;29395;224;63004;-54
2024/03/30 02:32:52;;;;;;;0.40;0.40;;;;;;;12.04;48.34;94896.72;29395;250;63024;-54
2024/03/30 02:33:25;;;;;;;0.50;0.50;;;;;;;12.04;50.10;94910.31;29395;209;63014;-54
2024/03/30 02:33:58;;;;;;;0.40;0.40;;;;;;;12.05;50.27;94908.38;29395;220;63009;-54
2024/03/30 02:34:30;;;;;;;0.47;0.47;;;;;;;12.05;49.87;94908.38;29395;231;63005;-54
2024/03/30 02:35:02;;;;;;;0.50;0.50;;;;;;;12.06;49.62;94905.31;29394;242;64013;-53
2024/03/30 02:35:34;;;;;;;0.40;0.40;;;;;;;12.08;50.11;94903.03;29395;205;63005;-54
2024/03/30 02:36:07;;;;;;;0.40;0.40;;;;;;;12.07;49.69;94912.31;29395;211;63009;-53
2024/03/30 02:36:39;;;;;;;0.50;0.50;;;;;;;12.07;50.16;94906.88;29395;226;63005;-54